sensor_id;sensor_type;location;lat;lon;timestamp;temperature;humidity
56478;DHT22;42382;53.210;5.772;2024-02-14T00:01:54;6.70;95.30
56478;DHT22;42382;53.210;5.772;2024-02-14T00:04:20;6.70;95.30
56478;DHT22;42382;53.210;5.772;2024-02-14T00:06:47;6.80;95.30
56478;DHT22;42382;53.210;5.772;2024-02-14T00:09:12;6.80;95.40
56478;DHT22;42382;53.210;5.772;2024-02-14T00:11:38;6.80;95.40
56478;DHT22;42382;53.210;5.772;2024-02-14T00:14:04;6.80;95.40
56478;DHT22;42382;53.210;5.772;2024-02-14T00:16:29;6.80;95.50
56478;DHT22;42382;53.210;5.772;2024-02-14T00:18:58;6.80;95.50
56478;DHT22;42382;53.210;5.772;2024-02-14T00:21:24;6.80;95.50
56478;DHT22;42382;53.210;5.772;2024-02-14T00:23:50;6.80;95.50
56478;DHT22;42382;53.210;5.772;2024-02-14T00:26:16;6.80;95.60
56478;DHT22;42382;53.210;5.772;2024-02-14T00:28:41;6.80;95.60
56478;DHT22;42382;53.210;5.772;2024-02-14T00:31:07;6.90;95.60
56478;DHT22;42382;53.210;5.772;2024-02-14T00:33:33;6.80;95.60
56478;DHT22;42382;53.210;5.772;2024-02-14T00:35:58;6.80;95.70
56478;DHT22;42382;53.210;5.772;2024-02-14T00:38:24;6.90;95.70
56478;DHT22;42382;53.210;5.772;2024-02-14T00:40:49;6.90;95.70
56478;DHT22;42382;53.210;5.772;2024-02-14T00:43:15;6.90;95.70
56478;DHT22;42382;53.210;5.772;2024-02-14T00:45:40;6.90;95.80
56478;DHT22;42382;53.210;5.772;2024-02-14T00:48:06;6.90;95.80
56478;DHT22;42382;53.210;5.772;2024-02-14T00:50:32;6.90;95.80
56478;DHT22;42382;53.210;5.772;2024-02-14T00:52:59;7.00;95.80
56478;DHT22;42382;53.210;5.772;2024-02-14T00:55:25;7.00;95.80
56478;DHT22;42382;53.210;5.772;2024-02-14T00:57:50;6.90;95.90
56478;DHT22;42382;53.210;5.772;2024-02-14T01:00:16;6.90;95.80
56478;DHT22;42382;53.210;5.772;2024-02-14T01:02:43;7.00;95.90
56478;DHT22;42382;53.210;5.772;2024-02-14T01:05:08;7.00;96.00
56478;DHT22;42382;53.210;5.772;2024-02-14T01:07:35;7.00;96.00
56478;DHT22;42382;53.210;5.772;2024-02-14T01:10:01;7.10;96.00
56478;DHT22;42382;53.210;5.772;2024-02-14T01:12:26;7.10;96.00
56478;DHT22;42382;53.210;5.772;2024-02-14T01:14:53;7.10;96.00
56478;DHT22;42382;53.210;5.772;2024-02-14T01:17:19;7.10;96.10
56478;DHT22;42382;53.210;5.772;2024-02-14T01:19:45;7.10;96.00
56478;DHT22;42382;53.210;5.772;2024-02-14T01:22:11;7.20;96.10
56478;DHT22;42382;53.210;5.772;2024-02-14T01:24:37;7.20;96.10
56478;DHT22;42382;53.210;5.772;2024-02-14T01:27:03;7.20;96.10
56478;DHT22;42382;53.210;5.772;2024-02-14T01:29:29;7.30;96.20
56478;DHT22;42382;53.210;5.772;2024-02-14T01:31:55;7.40;96.20
56478;DHT22;42382;53.210;5.772;2024-02-14T01:34:21;7.40;96.30
56478;DHT22;42382;53.210;5.772;2024-02-14T01:36:48;7.50;96.30
56478;DHT22;42382;53.210;5.772;2024-02-14T01:39:13;7.50;96.20
56478;DHT22;42382;53.210;5.772;2024-02-14T01:41:43;7.50;96.20
56478;DHT22;42382;53.210;5.772;2024-02-14T01:44:11;7.50;96.10
56478;DHT22;42382;53.210;5.772;2024-02-14T01:46:37;7.60;96.20
56478;DHT22;42382;53.210;5.772;2024-02-14T01:49:02;7.60;96.20
56478;DHT22;42382;53.210;5.772;2024-02-14T01:51:29;7.60;96.30
56478;DHT22;42382;53.210;5.772;2024-02-14T01:53:56;7.70;96.30
56478;DHT22;42382;53.210;5.772;2024-02-14T01:56:21;7.70;96.20
56478;DHT22;42382;53.210;5.772;2024-02-14T01:58:47;7.70;96.20
56478;DHT22;42382;53.210;5.772;2024-02-14T02:01:13;7.80;96.20
56478;DHT22;42382;53.210;5.772;2024-02-14T02:03:39;7.70;96.10
56478;DHT22;42382;53.210;5.772;2024-02-14T02:06:06;7.80;96.20
56478;DHT22;42382;53.210;5.772;2024-02-14T02:08:32;7.80;96.20
56478;DHT22;42382;53.210;5.772;2024-02-14T02:10:58;7.80;96.30
56478;DHT22;42382;53.210;5.772;2024-02-14T02:13:24;7.80;96.30
56478;DHT22;42382;53.210;5.772;2024-02-14T02:15:54;7.80;96.30
56478;DHT22;42382;53.210;5.772;2024-02-14T02:18:19;7.90;96.30
56478;DHT22;42382;53.210;5.772;2024-02-14T02:20:45;7.90;96.30
56478;DHT22;42382;53.210;5.772;2024-02-14T02:23:11;7.90;96.30
56478;DHT22;42382;53.210;5.772;2024-02-14T02:25:41;7.90;96.40
56478;DHT22;42382;53.210;5.772;2024-02-14T02:28:07;7.90;96.40
56478;DHT22;42382;53.210;5.772;2024-02-14T02:30:34;7.90;96.40
56478;DHT22;42382;53.210;5.772;2024-02-14T02:33:01;8.00;96.40
56478;DHT22;42382;53.210;5.772;2024-02-14T02:35:28;8.00;96.40
56478;DHT22;42382;53.210;5.772;2024-02-14T02:37:53;8.00;96.40
56478;DHT22;42382;53.210;5.772;2024-02-14T02:40:19;8.00;96.50
56478;DHT22;42382;53.210;5.772;2024-02-14T02:42:47;8.00;96.40
56478;DHT22;42382;53.210;5.772;2024-02-14T02:45:12;8.00;96.40
56478;DHT22;42382;53.210;5.772;2024-02-14T02:47:38;8.00;96.40
56478;DHT22;42382;53.210;5.772;2024-02-14T02:50:05;8.00;96.50
56478;DHT22;42382;53.210;5.772;2024-02-14T02:52:31;8.10;96.50
56478;DHT22;42382;53.210;5.772;2024-02-14T02:54:57;8.00;96.50
56478;DHT22;42382;53.210;5.772;2024-02-14T02:57:22;8.10;96.50
56478;DHT22;42382;53.210;5.772;2024-02-14T02:59:48;8.10;96.50
56478;DHT22;42382;53.210;5.772;2024-02-14T03:02:15;8.10;96.50
56478;DHT22;42382;53.210;5.772;2024-02-14T03:04:40;8.10;96.50
56478;DHT22;42382;53.210;5.772;2024-02-14T03:07:08;8.10;96.50
56478;DHT22;42382;53.210;5.772;2024-02-14T03:09:34;8.10;96.60
56478;DHT22;42382;53.210;5.772;2024-02-14T03:12:02;8.10;96.60
56478;DHT22;42382;53.210;5.772;2024-02-14T03:14:32;8.10;96.60
56478;DHT22;42382;53.210;5.772;2024-02-14T03:16:59;8.20;96.60
56478;DHT22;42382;53.210;5.772;2024-02-14T03:19:25;8.20;96.70
56478;DHT22;42382;53.210;5.772;2024-02-14T03:21:52;8.20;96.70
56478;DHT22;42382;53.210;5.772;2024-02-14T03:24:18;8.30;96.70
56478;DHT22;42382;53.210;5.772;2024-02-14T03:26:44;8.40;96.70
56478;DHT22;42382;53.210;5.772;2024-02-14T03:29:09;8.40;96.70
56478;DHT22;42382;53.210;5.772;2024-02-14T03:31:35;8.40;96.70
56478;DHT22;42382;53.210;5.772;2024-02-14T03:34:01;8.40;96.70
56478;DHT22;42382;53.210;5.772;2024-02-14T03:36:27;8.50;96.70
56478;DHT22;42382;53.210;5.772;2024-02-14T03:38:59;8.50;96.80
56478;DHT22;42382;53.210;5.772;2024-02-14T03:41:29;8.50;96.80
56478;DHT22;42382;53.210;5.772;2024-02-14T03:43:55;8.60;96.80
56478;DHT22;42382;53.210;5.772;2024-02-14T03:46:24;8.50;96.80
56478;DHT22;42382;53.210;5.772;2024-02-14T03:48:49;8.60;96.80
56478;DHT22;42382;53.210;5.772;2024-02-14T03:51:15;8.70;96.90
56478;DHT22;42382;53.210;5.772;2024-02-14T03:53:41;8.70;96.90
56478;DHT22;42382;53.210;5.772;2024-02-14T03:56:07;8.80;96.90
56478;DHT22;42382;53.210;5.772;2024-02-14T03:58:33;8.80;96.90
56478;DHT22;42382;53.210;5.772;2024-02-14T04:01:05;8.80;96.90
56478;DHT22;42382;53.210;5.772;2024-02-14T04:03:31;8.90;96.90
56478;DHT22;42382;53.210;5.772;2024-02-14T04:05:56;8.80;96.90
56478;DHT22;42382;53.210;5.772;2024-02-14T04:08:23;8.90;96.90
56478;DHT22;42382;53.210;5.772;2024-02-14T04:10:49;8.90;97.00
56478;DHT22;42382;53.210;5.772;2024-02-14T04:13:20;8.90;97.00
56478;DHT22;42382;53.210;5.772;2024-02-14T04:15:46;8.90;97.00
56478;DHT22;42382;53.210;5.772;2024-02-14T04:18:13;8.90;97.00
56478;DHT22;42382;53.210;5.772;2024-02-14T04:20:40;9.00;97.00
56478;DHT22;42382;53.210;5.772;2024-02-14T04:23:06;9.00;97.00
56478;DHT22;42382;53.210;5.772;2024-02-14T04:25:33;9.00;97.00
56478;DHT22;42382;53.210;5.772;2024-02-14T04:27:59;8.90;97.00
56478;DHT22;42382;53.210;5.772;2024-02-14T04:30:25;9.00;97.00
56478;DHT22;42382;53.210;5.772;2024-02-14T04:32:51;9.00;97.00
56478;DHT22;42382;53.210;5.772;2024-02-14T04:35:19;9.00;97.00
56478;DHT22;42382;53.210;5.772;2024-02-14T04:37:45;9.00;97.10
56478;DHT22;42382;53.210;5.772;2024-02-14T04:40:12;9.00;97.10
56478;DHT22;42382;53.210;5.772;2024-02-14T04:42:38;9.00;97.10
56478;DHT22;42382;53.210;5.772;2024-02-14T04:45:04;9.00;97.10
56478;DHT22;42382;53.210;5.772;2024-02-14T04:47:30;9.00;97.10
56478;DHT22;42382;53.210;5.772;2024-02-14T04:49:55;9.00;97.10
56478;DHT22;42382;53.210;5.772;2024-02-14T04:52:21;9.00;97.10
56478;DHT22;42382;53.210;5.772;2024-02-14T04:54:47;9.00;97.20
56478;DHT22;42382;53.210;5.772;2024-02-14T04:57:13;9.00;97.20
56478;DHT22;42382;53.210;5.772;2024-02-14T04:59:38;9.00;97.10
56478;DHT22;42382;53.210;5.772;2024-02-14T05:02:04;9.00;97.10
56478;DHT22;42382;53.210;5.772;2024-02-14T05:04:29;9.00;97.20
56478;DHT22;42382;53.210;5.772;2024-02-14T05:06:56;9.00;97.10
56478;DHT22;42382;53.210;5.772;2024-02-14T05:09:22;9.00;97.10
56478;DHT22;42382;53.210;5.772;2024-02-14T05:11:48;8.90;97.10
56478;DHT22;42382;53.210;5.772;2024-02-14T05:14:14;8.90;97.10
56478;DHT22;42382;53.210;5.772;2024-02-14T05:16:40;8.90;97.10
56478;DHT22;42382;53.210;5.772;2024-02-14T05:19:06;9.00;97.20
56478;DHT22;42382;53.210;5.772;2024-02-14T05:21:31;9.00;97.20
56478;DHT22;42382;53.210;5.772;2024-02-14T05:23:57;9.00;97.20
56478;DHT22;42382;53.210;5.772;2024-02-14T05:26:22;9.10;97.20
56478;DHT22;42382;53.210;5.772;2024-02-14T05:28:48;9.10;97.20
56478;DHT22;42382;53.210;5.772;2024-02-14T05:31:14;9.10;97.20
56478;DHT22;42382;53.210;5.772;2024-02-14T05:33:41;9.10;97.20
56478;DHT22;42382;53.210;5.772;2024-02-14T05:36:08;9.10;97.30
56478;DHT22;42382;53.210;5.772;2024-02-14T05:38:34;9.10;97.30
56478;DHT22;42382;53.210;5.772;2024-02-14T05:40:59;9.10;97.30
56478;DHT22;42382;53.210;5.772;2024-02-14T05:43:26;9.20;97.30
56478;DHT22;42382;53.210;5.772;2024-02-14T05:45:51;9.20;97.30
56478;DHT22;42382;53.210;5.772;2024-02-14T05:48:17;9.20;97.30
56478;DHT22;42382;53.210;5.772;2024-02-14T05:50:42;9.20;97.30
56478;DHT22;42382;53.210;5.772;2024-02-14T05:53:08;9.20;97.30
56478;DHT22;42382;53.210;5.772;2024-02-14T05:55:34;9.20;97.30
56478;DHT22;42382;53.210;5.772;2024-02-14T05:57:59;9.20;97.40
56478;DHT22;42382;53.210;5.772;2024-02-14T06:00:25;9.20;97.30
56478;DHT22;42382;53.210;5.772;2024-02-14T06:02:52;9.30;97.40
56478;DHT22;42382;53.210;5.772;2024-02-14T06:05:17;9.30;97.30
56478;DHT22;42382;53.210;5.772;2024-02-14T06:07:43;9.30;97.30
56478;DHT22;42382;53.210;5.772;2024-02-14T06:10:12;9.30;97.40
56478;DHT22;42382;53.210;5.772;2024-02-14T06:12:38;9.30;97.30
56478;DHT22;42382;53.210;5.772;2024-02-14T06:15:06;9.30;97.40
56478;DHT22;42382;53.210;5.772;2024-02-14T06:17:33;9.30;97.40
56478;DHT22;42382;53.210;5.772;2024-02-14T06:19:58;9.30;97.30
56478;DHT22;42382;53.210;5.772;2024-02-14T06:22:25;9.30;97.40
56478;DHT22;42382;53.210;5.772;2024-02-14T06:24:51;9.30;97.40
56478;DHT22;42382;53.210;5.772;2024-02-14T06:27:16;9.30;97.40
56478;DHT22;42382;53.210;5.772;2024-02-14T06:29:43;9.30;97.40
56478;DHT22;42382;53.210;5.772;2024-02-14T06:32:09;9.30;97.40
56478;DHT22;42382;53.210;5.772;2024-02-14T06:34:34;9.30;97.40
56478;DHT22;42382;53.210;5.772;2024-02-14T06:37:00;9.30;97.40
56478;DHT22;42382;53.210;5.772;2024-02-14T06:39:25;9.30;97.40
56478;DHT22;42382;53.210;5.772;2024-02-14T06:41:51;9.30;97.40
56478;DHT22;42382;53.210;5.772;2024-02-14T06:44:17;9.40;97.40
56478;DHT22;42382;53.210;5.772;2024-02-14T06:46:44;9.30;97.40
56478;DHT22;42382;53.210;5.772;2024-02-14T06:49:09;9.40;97.40
56478;DHT22;42382;53.210;5.772;2024-02-14T06:51:35;9.40;97.40
56478;DHT22;42382;53.210;5.772;2024-02-14T06:54:00;9.40;97.40
56478;DHT22;42382;53.210;5.772;2024-02-14T06:56:26;9.40;97.40
56478;DHT22;42382;53.210;5.772;2024-02-14T06:58:51;9.40;97.40
56478;DHT22;42382;53.210;5.772;2024-02-14T07:01:20;9.40;97.40
56478;DHT22;42382;53.210;5.772;2024-02-14T07:03:48;9.40;97.40
56478;DHT22;42382;53.210;5.772;2024-02-14T07:06:14;9.40;97.40
56478;DHT22;42382;53.210;5.772;2024-02-14T07:08:43;9.40;97.40
56478;DHT22;42382;53.210;5.772;2024-02-14T07:11:08;9.40;97.40
56478;DHT22;42382;53.210;5.772;2024-02-14T07:13:34;9.40;97.40
56478;DHT22;42382;53.210;5.772;2024-02-14T07:16:00;9.40;97.40
56478;DHT22;42382;53.210;5.772;2024-02-14T07:18:26;9.40;97.40
56478;DHT22;42382;53.210;5.772;2024-02-14T07:20:51;9.40;97.40
56478;DHT22;42382;53.210;5.772;2024-02-14T07:23:18;9.40;97.40
56478;DHT22;42382;53.210;5.772;2024-02-14T07:25:44;9.50;97.40
56478;DHT22;42382;53.210;5.772;2024-02-14T07:28:10;9.40;97.40
56478;DHT22;42382;53.210;5.772;2024-02-14T07:30:36;9.40;97.40
56478;DHT22;42382;53.210;5.772;2024-02-14T07:33:01;9.50;97.40
56478;DHT22;42382;53.210;5.772;2024-02-14T07:35:27;9.50;97.40
56478;DHT22;42382;53.210;5.772;2024-02-14T07:37:52;9.60;97.40
56478;DHT22;42382;53.210;5.772;2024-02-14T07:40:20;9.60;97.40
56478;DHT22;42382;53.210;5.772;2024-02-14T07:42:46;9.50;97.40
56478;DHT22;42382;53.210;5.772;2024-02-14T07:45:12;9.60;97.40
56478;DHT22;42382;53.210;5.772;2024-02-14T07:47:38;9.60;97.40
56478;DHT22;42382;53.210;5.772;2024-02-14T07:50:06;9.60;97.40
56478;DHT22;42382;53.210;5.772;2024-02-14T07:52:31;9.70;97.40
56478;DHT22;42382;53.210;5.772;2024-02-14T07:54:57;9.60;97.40
56478;DHT22;42382;53.210;5.772;2024-02-14T07:57:23;9.60;97.40
56478;DHT22;42382;53.210;5.772;2024-02-14T07:59:50;9.70;97.40
56478;DHT22;42382;53.210;5.772;2024-02-14T08:02:16;9.70;97.30
56478;DHT22;42382;53.210;5.772;2024-02-14T08:04:42;9.70;97.40
56478;DHT22;42382;53.210;5.772;2024-02-14T08:07:09;9.70;97.40
56478;DHT22;42382;53.210;5.772;2024-02-14T08:09:35;9.70;97.40
56478;DHT22;42382;53.210;5.772;2024-02-14T08:12:00;9.70;97.40
56478;DHT22;42382;53.210;5.772;2024-02-14T08:14:26;9.70;97.30
56478;DHT22;42382;53.210;5.772;2024-02-14T08:16:52;9.70;97.30
56478;DHT22;42382;53.210;5.772;2024-02-14T08:19:18;9.70;97.40
56478;DHT22;42382;53.210;5.772;2024-02-14T08:21:44;9.70;97.30
56478;DHT22;42382;53.210;5.772;2024-02-14T08:24:10;9.70;97.30
56478;DHT22;42382;53.210;5.772;2024-02-14T08:26:36;9.70;97.30
56478;DHT22;42382;53.210;5.772;2024-02-14T08:29:01;9.70;97.40
56478;DHT22;42382;53.210;5.772;2024-02-14T08:31:27;9.80;97.40
56478;DHT22;42382;53.210;5.772;2024-02-14T08:33:56;9.70;97.30
56478;DHT22;42382;53.210;5.772;2024-02-14T08:36:21;9.70;97.30
56478;DHT22;42382;53.210;5.772;2024-02-14T08:38:47;9.70;97.40
56478;DHT22;42382;53.210;5.772;2024-02-14T08:41:12;9.70;97.40
56478;DHT22;42382;53.210;5.772;2024-02-14T08:43:39;9.70;97.40
56478;DHT22;42382;53.210;5.772;2024-02-14T08:46:09;9.80;97.40
56478;DHT22;42382;53.210;5.772;2024-02-14T08:48:36;9.80;97.40
56478;DHT22;42382;53.210;5.772;2024-02-14T08:51:08;9.80;97.40
56478;DHT22;42382;53.210;5.772;2024-02-14T08:53:35;9.90;97.40
56478;DHT22;42382;53.210;5.772;2024-02-14T08:56:01;9.90;97.40
56478;DHT22;42382;53.210;5.772;2024-02-14T08:58:27;9.90;97.40
56478;DHT22;42382;53.210;5.772;2024-02-14T09:00:53;9.90;97.40
56478;DHT22;42382;53.210;5.772;2024-02-14T09:03:19;9.90;97.40
56478;DHT22;42382;53.210;5.772;2024-02-14T09:05:45;10.00;97.40
56478;DHT22;42382;53.210;5.772;2024-02-14T09:08:12;10.00;97.50
56478;DHT22;42382;53.210;5.772;2024-02-14T09:10:38;10.00;97.40
56478;DHT22;42382;53.210;5.772;2024-02-14T09:13:04;10.00;97.40
56478;DHT22;42382;53.210;5.772;2024-02-14T09:15:29;10.10;97.40
56478;DHT22;42382;53.210;5.772;2024-02-14T09:17:56;10.10;97.40
56478;DHT22;42382;53.210;5.772;2024-02-14T09:20:22;10.10;97.40
56478;DHT22;42382;53.210;5.772;2024-02-14T09:22:48;10.10;97.40
56478;DHT22;42382;53.210;5.772;2024-02-14T09:25:13;10.10;97.40
56478;DHT22;42382;53.210;5.772;2024-02-14T09:27:40;10.10;97.40
56478;DHT22;42382;53.210;5.772;2024-02-14T09:30:07;10.10;97.40
56478;DHT22;42382;53.210;5.772;2024-02-14T09:32:36;10.20;97.50
56478;DHT22;42382;53.210;5.772;2024-02-14T09:35:02;10.20;97.40
56478;DHT22;42382;53.210;5.772;2024-02-14T09:37:32;10.10;97.40
56478;DHT22;42382;53.210;5.772;2024-02-14T09:39:57;10.10;97.40
56478;DHT22;42382;53.210;5.772;2024-02-14T09:42:30;10.10;97.40
56478;DHT22;42382;53.210;5.772;2024-02-14T09:44:59;10.20;97.40
56478;DHT22;42382;53.210;5.772;2024-02-14T09:47:28;10.20;97.40
56478;DHT22;42382;53.210;5.772;2024-02-14T09:49:56;10.10;97.40
56478;DHT22;42382;53.210;5.772;2024-02-14T09:52:23;10.20;97.50
56478;DHT22;42382;53.210;5.772;2024-02-14T09:54:49;10.20;97.40
56478;DHT22;42382;53.210;5.772;2024-02-14T09:57:16;10.20;97.50
56478;DHT22;42382;53.210;5.772;2024-02-14T09:59:43;10.20;97.50
56478;DHT22;42382;53.210;5.772;2024-02-14T10:02:10;10.20;97.50
56478;DHT22;42382;53.210;5.772;2024-02-14T10:04:36;10.20;97.50
56478;DHT22;42382;53.210;5.772;2024-02-14T10:07:06;10.20;97.50
56478;DHT22;42382;53.210;5.772;2024-02-14T10:09:40;10.20;97.50
56478;DHT22;42382;53.210;5.772;2024-02-14T10:12:07;10.30;97.50
56478;DHT22;42382;53.210;5.772;2024-02-14T10:14:35;10.30;97.50
56478;DHT22;42382;53.210;5.772;2024-02-14T10:17:02;10.30;97.50
56478;DHT22;42382;53.210;5.772;2024-02-14T10:19:28;10.30;97.50
56478;DHT22;42382;53.210;5.772;2024-02-14T10:22:00;10.30;97.50
56478;DHT22;42382;53.210;5.772;2024-02-14T10:24:29;10.30;97.60
56478;DHT22;42382;53.210;5.772;2024-02-14T10:26:56;10.40;97.50
56478;DHT22;42382;53.210;5.772;2024-02-14T10:29:23;10.40;97.50
56478;DHT22;42382;53.210;5.772;2024-02-14T10:31:49;10.40;97.50
56478;DHT22;42382;53.210;5.772;2024-02-14T10:34:16;10.40;97.50
56478;DHT22;42382;53.210;5.772;2024-02-14T10:36:43;10.40;97.50
56478;DHT22;42382;53.210;5.772;2024-02-14T10:39:11;10.40;97.50
56478;DHT22;42382;53.210;5.772;2024-02-14T10:41:41;10.40;97.50
56478;DHT22;42382;53.210;5.772;2024-02-14T10:44:06;10.40;97.50
56478;DHT22;42382;53.210;5.772;2024-02-14T10:46:40;10.50;97.50
56478;DHT22;42382;53.210;5.772;2024-02-14T10:49:07;10.40;97.50
56478;DHT22;42382;53.210;5.772;2024-02-14T10:51:38;10.40;97.50
56478;DHT22;42382;53.210;5.772;2024-02-14T10:54:09;10.40;97.50
56478;DHT22;42382;53.210;5.772;2024-02-14T10:56:39;10.50;97.50
56478;DHT22;42382;53.210;5.772;2024-02-14T10:59:07;10.50;97.50
56478;DHT22;42382;53.210;5.772;2024-02-14T11:01:33;10.50;97.50
56478;DHT22;42382;53.210;5.772;2024-02-14T11:04:01;10.50;97.50
56478;DHT22;42382;53.210;5.772;2024-02-14T11:06:27;10.60;97.50
56478;DHT22;42382;53.210;5.772;2024-02-14T11:09:02;10.50;97.50
56478;DHT22;42382;53.210;5.772;2024-02-14T11:11:33;10.60;97.50
56478;DHT22;42382;53.210;5.772;2024-02-14T11:13:58;10.60;97.50
56478;DHT22;42382;53.210;5.772;2024-02-14T11:16:28;10.60;97.50
56478;DHT22;42382;53.210;5.772;2024-02-14T11:19:06;10.60;97.50
56478;DHT22;42382;53.210;5.772;2024-02-14T11:21:35;10.60;97.50
56478;DHT22;42382;53.210;5.772;2024-02-14T11:24:05;10.60;97.50
56478;DHT22;42382;53.210;5.772;2024-02-14T11:26:48;10.60;97.50
56478;DHT22;42382;53.210;5.772;2024-02-14T11:29:18;10.60;97.50
56478;DHT22;42382;53.210;5.772;2024-02-14T11:31:47;10.60;97.50
56478;DHT22;42382;53.210;5.772;2024-02-14T11:34:16;10.60;97.40
56478;DHT22;42382;53.210;5.772;2024-02-14T11:36:45;10.70;97.40
56478;DHT22;42382;53.210;5.772;2024-02-14T11:39:11;10.60;97.40
56478;DHT22;42382;53.210;5.772;2024-02-14T11:41:40;10.60;97.40
56478;DHT22;42382;53.210;5.772;2024-02-14T11:44:07;10.70;97.40
56478;DHT22;42382;53.210;5.772;2024-02-14T11:46:35;10.70;97.40
56478;DHT22;42382;53.210;5.772;2024-02-14T11:49:03;10.70;97.40
56478;DHT22;42382;53.210;5.772;2024-02-14T11:51:30;10.70;97.40
56478;DHT22;42382;53.210;5.772;2024-02-14T11:53:57;10.70;97.40
56478;DHT22;42382;53.210;5.772;2024-02-14T11:56:33;10.80;97.50
56478;DHT22;42382;53.210;5.772;2024-02-14T11:59:01;10.70;97.40
56478;DHT22;42382;53.210;5.772;2024-02-14T12:01:37;10.70;97.40
56478;DHT22;42382;53.210;5.772;2024-02-14T12:04:05;10.80;97.40
56478;DHT22;42382;53.210;5.772;2024-02-14T12:06:34;10.80;97.40
56478;DHT22;42382;53.210;5.772;2024-02-14T12:09:03;10.70;97.40
56478;DHT22;42382;53.210;5.772;2024-02-14T12:11:36;10.80;97.50
56478;DHT22;42382;53.210;5.772;2024-02-14T12:14:08;10.80;97.40
56478;DHT22;42382;53.210;5.772;2024-02-14T12:16:35;10.80;97.40
56478;DHT22;42382;53.210;5.772;2024-02-14T12:19:10;10.80;97.40
56478;DHT22;42382;53.210;5.772;2024-02-14T12:21:41;10.80;97.40
56478;DHT22;42382;53.210;5.772;2024-02-14T12:24:07;10.90;97.40
56478;DHT22;42382;53.210;5.772;2024-02-14T12:26:34;10.80;97.40
56478;DHT22;42382;53.210;5.772;2024-02-14T12:29:02;10.80;97.40
56478;DHT22;42382;53.210;5.772;2024-02-14T12:31:29;10.80;97.40
56478;DHT22;42382;53.210;5.772;2024-02-14T12:33:59;10.90;97.40
56478;DHT22;42382;53.210;5.772;2024-02-14T12:36:33;10.90;97.40
56478;DHT22;42382;53.210;5.772;2024-02-14T12:39:02;10.80;97.40
56478;DHT22;42382;53.210;5.772;2024-02-14T12:41:28;10.80;97.40
56478;DHT22;42382;53.210;5.772;2024-02-14T12:43:58;10.80;97.40
56478;DHT22;42382;53.210;5.772;2024-02-14T12:46:24;10.90;97.40
56478;DHT22;42382;53.210;5.772;2024-02-14T12:48:50;10.90;97.40
56478;DHT22;42382;53.210;5.772;2024-02-14T12:51:16;10.80;97.40
56478;DHT22;42382;53.210;5.772;2024-02-14T12:53:41;10.80;97.30
56478;DHT22;42382;53.210;5.772;2024-02-14T12:56:07;10.80;97.40
56478;DHT22;42382;53.210;5.772;2024-02-14T12:58:33;10.80;97.40
56478;DHT22;42382;53.210;5.772;2024-02-14T13:00:59;10.80;97.40
56478;DHT22;42382;53.210;5.772;2024-02-14T13:03:26;10.80;97.30
56478;DHT22;42382;53.210;5.772;2024-02-14T13:05:52;10.80;97.30
56478;DHT22;42382;53.210;5.772;2024-02-14T13:08:21;10.80;97.40
56478;DHT22;42382;53.210;5.772;2024-02-14T13:10:46;10.80;97.40
56478;DHT22;42382;53.210;5.772;2024-02-14T13:13:12;10.80;97.30
56478;DHT22;42382;53.210;5.772;2024-02-14T13:15:39;10.80;97.30
56478;DHT22;42382;53.210;5.772;2024-02-14T13:18:06;10.80;97.40
56478;DHT22;42382;53.210;5.772;2024-02-14T13:20:31;10.80;97.30
56478;DHT22;42382;53.210;5.772;2024-02-14T13:22:57;10.80;97.30
56478;DHT22;42382;53.210;5.772;2024-02-14T13:25:23;10.80;97.30
56478;DHT22;42382;53.210;5.772;2024-02-14T13:27:49;10.80;97.30
56478;DHT22;42382;53.210;5.772;2024-02-14T13:30:14;10.80;97.40
56478;DHT22;42382;53.210;5.772;2024-02-14T13:32:40;10.80;97.30
56478;DHT22;42382;53.210;5.772;2024-02-14T13:35:06;10.80;97.30
56478;DHT22;42382;53.210;5.772;2024-02-14T13:37:33;10.80;97.30
56478;DHT22;42382;53.210;5.772;2024-02-14T13:39:59;10.90;97.30
56478;DHT22;42382;53.210;5.772;2024-02-14T13:42:24;10.90;97.40
56478;DHT22;42382;53.210;5.772;2024-02-14T13:44:50;10.90;97.40
56478;DHT22;42382;53.210;5.772;2024-02-14T13:47:18;10.90;97.40
56478;DHT22;42382;53.210;5.772;2024-02-14T13:49:44;11.00;97.40
56478;DHT22;42382;53.210;5.772;2024-02-14T13:52:10;10.90;97.40
56478;DHT22;42382;53.210;5.772;2024-02-14T13:54:36;10.90;97.40
56478;DHT22;42382;53.210;5.772;2024-02-14T13:57:01;11.00;97.40
56478;DHT22;42382;53.210;5.772;2024-02-14T13:59:28;11.00;97.40
56478;DHT22;42382;53.210;5.772;2024-02-14T14:01:54;11.00;97.40
56478;DHT22;42382;53.210;5.772;2024-02-14T14:04:20;11.00;97.40
56478;DHT22;42382;53.210;5.772;2024-02-14T14:06:46;11.00;97.40
56478;DHT22;42382;53.210;5.772;2024-02-14T14:09:14;11.00;97.40
56478;DHT22;42382;53.210;5.772;2024-02-14T14:11:39;11.00;97.40
56478;DHT22;42382;53.210;5.772;2024-02-14T14:14:06;11.00;97.40
56478;DHT22;42382;53.210;5.772;2024-02-14T14:16:33;11.00;97.40
56478;DHT22;42382;53.210;5.772;2024-02-14T14:18:59;11.00;97.40
56478;DHT22;42382;53.210;5.772;2024-02-14T14:21:25;11.00;97.40
56478;DHT22;42382;53.210;5.772;2024-02-14T14:23:50;11.00;97.40
56478;DHT22;42382;53.210;5.772;2024-02-14T14:26:16;11.00;97.40
56478;DHT22;42382;53.210;5.772;2024-02-14T14:28:41;11.00;97.40
56478;DHT22;42382;53.210;5.772;2024-02-14T14:31:08;11.00;97.50
56478;DHT22;42382;53.210;5.772;2024-02-14T14:33:36;11.00;97.40
56478;DHT22;42382;53.210;5.772;2024-02-14T14:36:02;11.00;97.40
56478;DHT22;42382;53.210;5.772;2024-02-14T14:38:28;11.00;97.50
56478;DHT22;42382;53.210;5.772;2024-02-14T14:40:55;10.90;97.40
56478;DHT22;42382;53.210;5.772;2024-02-14T14:43:21;10.90;97.40
56478;DHT22;42382;53.210;5.772;2024-02-14T14:45:46;10.90;97.40
56478;DHT22;42382;53.210;5.772;2024-02-14T14:48:12;11.00;97.40
56478;DHT22;42382;53.210;5.772;2024-02-14T14:50:38;11.00;97.40
56478;DHT22;42382;53.210;5.772;2024-02-14T14:53:04;11.00;97.40
56478;DHT22;42382;53.210;5.772;2024-02-14T14:56:00;10.90;97.40
56478;DHT22;42382;53.210;5.772;2024-02-14T14:58:26;10.90;97.50
56478;DHT22;42382;53.210;5.772;2024-02-14T15:00:59;11.00;97.50
56478;DHT22;42382;53.210;5.772;2024-02-14T15:03:25;11.00;97.50
56478;DHT22;42382;53.210;5.772;2024-02-14T15:05:51;10.90;97.50
56478;DHT22;42382;53.210;5.772;2024-02-14T15:08:18;10.90;97.50
56478;DHT22;42382;53.210;5.772;2024-02-14T15:10:48;10.90;97.50
56478;DHT22;42382;53.210;5.772;2024-02-14T15:13:16;11.00;97.50
56478;DHT22;42382;53.210;5.772;2024-02-14T15:15:41;11.00;97.60
56478;DHT22;42382;53.210;5.772;2024-02-14T15:18:07;11.00;97.50
56478;DHT22;42382;53.210;5.772;2024-02-14T15:20:33;11.00;97.50
56478;DHT22;42382;53.210;5.772;2024-02-14T15:23:01;10.90;97.50
56478;DHT22;42382;53.210;5.772;2024-02-14T15:25:28;10.90;97.50
56478;DHT22;42382;53.210;5.772;2024-02-14T15:27:53;10.90;97.50
56478;DHT22;42382;53.210;5.772;2024-02-14T15:30:26;10.90;97.50
56478;DHT22;42382;53.210;5.772;2024-02-14T15:33:11;10.90;97.50
56478;DHT22;42382;53.210;5.772;2024-02-14T15:35:48;10.90;97.50
56478;DHT22;42382;53.210;5.772;2024-02-14T15:38:15;10.90;97.50